createdAt,value
2022-09-29T00:00:55.324Z,99.90
2022-09-29T00:03:23.609Z,99.90
2022-09-29T00:05:53.524Z,99.90
2022-09-29T00:08:23.487Z,99.90
2022-09-29T00:10:51.285Z,99.90
2022-09-29T00:13:18.950Z,99.90
2022-09-29T00:15:58.968Z,99.90
2022-09-29T00:18:44.839Z,99.90
2022-09-29T00:21:15.271Z,99.90
2022-09-29T00:23:42.776Z,99.90
2022-09-29T00:26:13.378Z,99.90
2022-09-29T00:28:42.647Z,99.90
2022-09-29T00:31:12.143Z,99.90
2022-09-29T00:33:40.293Z,99.90
2022-09-29T00:36:12.559Z,99.90
2022-09-29T00:38:42.164Z,99.90
2022-09-29T00:41:17.996Z,99.90
2022-09-29T00:44:29.362Z,99.90
2022-09-29T00:47:03.243Z,99.90
2022-09-29T00:49:44.465Z,99.90
2022-09-29T00:52:34.861Z,99.90
2022-09-29T00:55:25.152Z,99.90
2022-09-29T00:58:02.078Z,99.90
2022-09-29T01:00:29.444Z,99.90
2022-09-29T01:03:04.275Z,99.90
2022-09-29T01:05:42.450Z,99.90
2022-09-29T01:08:45.235Z,99.90
2022-09-29T01:11:13.890Z,99.90
2022-09-29T01:13:41.908Z,99.90
2022-09-29T01:16:09.324Z,99.90
2022-09-29T01:18:37.020Z,99.90
2022-09-29T01:21:41.271Z,99.90
2022-09-29T01:24:26.907Z,99.90
2022-09-29T01:27:23.423Z,99.90
2022-09-29T01:30:15.865Z,99.90
2022-09-29T01:32:52.376Z,99.90
2022-09-29T01:35:52.390Z,99.90
2022-09-29T01:38:45.819Z,99.90
2022-09-29T01:41:26.183Z,99.90
2022-09-29T01:44:11.141Z,99.90
2022-09-29T01:46:46.927Z,99.90
2022-09-29T01:49:15.128Z,99.90
2022-09-29T01:51:52.164Z,99.90
2022-09-29T01:54:25.703Z,99.90
2022-09-29T01:57:00.444Z,99.90
2022-09-29T02:00:09.264Z,99.90
2022-09-29T02:02:50.879Z,99.90
2022-09-29T02:05:28.332Z,99.90
2022-09-29T02:07:59.159Z,99.90
2022-09-29T02:10:31.485Z,99.90
2022-09-29T02:13:01.251Z,99.90
2022-09-29T02:15:34.248Z,99.90
2022-09-29T02:18:16.365Z,99.90
2022-09-29T02:20:43.905Z,99.90
2022-09-29T02:23:11.375Z,99.90
2022-09-29T02:25:40.107Z,99.90
2022-09-29T02:28:08.341Z,99.90
2022-09-29T02:30:36.268Z,99.90
2022-09-29T02:33:03.871Z,99.90
2022-09-29T02:35:56.769Z,99.90
2022-09-29T02:39:03.612Z,99.90
2022-09-29T02:41:52.532Z,99.90
2022-09-29T02:45:00.599Z,99.90
2022-09-29T02:48:00.058Z,99.90
2022-09-29T02:50:56.841Z,99.90
2022-09-29T02:53:57.053Z,99.90
2022-09-29T02:57:17.585Z,99.90
2022-09-29T03:00:17.904Z,99.90
2022-09-29T03:02:45.871Z,99.90
2022-09-29T03:05:18.745Z,99.90
2022-09-29T03:07:46.175Z,99.90
2022-09-29T03:10:15.897Z,99.90
2022-09-29T03:12:43.218Z,99.90
2022-09-29T03:15:14.424Z,99.90
2022-09-29T03:17:42.176Z,99.90
2022-09-29T03:20:10.075Z,99.90
2022-09-29T03:22:37.891Z,99.90
2022-09-29T03:25:06.979Z,99.90
2022-09-29T03:27:36.903Z,99.90
2022-09-29T03:30:05.041Z,99.90
2022-09-29T03:32:32.458Z,99.90
2022-09-29T03:35:00.098Z,99.90
2022-09-29T03:37:27.398Z,99.90
2022-09-29T03:39:54.755Z,99.90
2022-09-29T03:42:24.342Z,99.90
2022-09-29T03:44:51.659Z,99.90
2022-09-29T03:47:19.193Z,99.90
2022-09-29T03:49:46.593Z,99.90
2022-09-29T03:52:14.012Z,99.90
2022-09-29T03:54:41.300Z,99.90
2022-09-29T03:57:08.658Z,99.90
2022-09-29T03:59:36.007Z,99.90
2022-09-29T04:02:04.244Z,99.90
2022-09-29T04:04:31.625Z,99.90
2022-09-29T04:06:59.462Z,99.90
2022-09-29T04:09:26.743Z,99.90
2022-09-29T04:11:54.112Z,99.90
2022-09-29T04:14:21.428Z,99.90
2022-09-29T04:16:48.770Z,99.90
2022-09-29T04:19:16.282Z,99.90
2022-09-29T04:21:43.649Z,99.90
2022-09-29T04:24:11.102Z,99.90
2022-09-29T04:26:39.970Z,99.90
2022-09-29T04:29:07.754Z,99.90
2022-09-29T04:31:35.166Z,99.90
2022-09-29T04:34:02.772Z,99.90
2022-09-29T04:36:30.427Z,99.90
2022-09-29T04:38:57.913Z,99.90
2022-09-29T04:41:25.228Z,99.90
2022-09-29T04:43:52.540Z,99.90
2022-09-29T04:46:19.929Z,99.90
2022-09-29T04:48:47.255Z,99.90
2022-09-29T04:51:14.616Z,99.90
2022-09-29T04:53:41.955Z,99.90
2022-09-29T04:56:09.451Z,99.90
2022-09-29T04:58:36.784Z,99.90
2022-09-29T05:01:09.455Z,99.90
2022-09-29T05:03:36.812Z,99.90
2022-09-29T05:06:04.506Z,99.90
2022-09-29T05:08:32.025Z,99.90
2022-09-29T05:11:02.691Z,99.90
2022-09-29T05:13:30.046Z,99.90
2022-09-29T05:15:57.767Z,99.90
2022-09-29T05:18:25.724Z,99.90
2022-09-29T05:21:10.688Z,99.90
2022-09-29T05:23:42.573Z,99.90
2022-09-29T05:26:11.457Z,99.90
2022-09-29T05:28:43.051Z,99.90
2022-09-29T05:31:11.251Z,99.90
2022-09-29T05:33:39.225Z,99.90
2022-09-29T05:36:11.751Z,99.90
2022-09-29T05:38:39.866Z,99.90
2022-09-29T05:41:10.387Z,99.90
2022-09-29T05:43:38.082Z,99.90
2022-09-29T05:46:07.158Z,99.90
2022-09-29T05:48:35.020Z,99.90
2022-09-29T05:51:10.094Z,99.90
2022-09-29T05:53:37.576Z,99.90
2022-09-29T05:56:09.970Z,99.90
2022-09-29T05:58:38.183Z,99.90
2022-09-29T06:01:21.152Z,99.90
2022-09-29T06:03:48.579Z,99.90
2022-09-29T06:06:19.428Z,99.90
2022-09-29T06:08:47.927Z,99.90
2022-09-29T06:11:21.060Z,99.90
2022-09-29T06:13:50.702Z,99.90
2022-09-29T06:16:20.882Z,99.90
2022-09-29T06:18:48.849Z,99.90
2022-09-29T06:21:18.713Z,99.90
2022-09-29T06:23:46.441Z,99.90
2022-09-29T06:26:21.445Z,99.90
2022-09-29T06:28:50.895Z,99.90
2022-09-29T06:31:20.292Z,99.90
2022-09-29T06:33:47.720Z,99.90
2022-09-29T06:36:43.456Z,99.90
2022-09-29T06:39:13.960Z,99.90
2022-09-29T06:41:41.763Z,99.90
2022-09-29T06:44:09.126Z,99.90
2022-09-29T06:46:36.545Z,99.90
2022-09-29T06:49:03.897Z,99.90
2022-09-29T06:51:43.604Z,99.90
2022-09-29T06:54:14.987Z,99.90
2022-09-29T06:56:42.722Z,99.90
2022-09-29T06:59:10.091Z,99.90
2022-09-29T07:01:37.557Z,99.90
2022-09-29T07:04:04.921Z,99.90
2022-09-29T07:06:32.269Z,99.90
2022-09-29T07:09:00.048Z,99.90
2022-09-29T07:11:28.176Z,99.90
2022-09-29T07:13:55.622Z,99.90
2022-09-29T07:16:26.371Z,99.90
2022-09-29T07:18:53.819Z,99.90
2022-09-29T07:21:22.280Z,99.90
2022-09-29T07:23:50.138Z,99.90
2022-09-29T07:26:18.433Z,99.90
2022-09-29T07:28:47.021Z,99.90
2022-09-29T07:31:20.346Z,99.90
2022-09-29T07:33:49.969Z,99.90
2022-09-29T07:36:19.316Z,99.90
2022-09-29T07:38:48.355Z,99.90
2022-09-29T07:41:16.764Z,99.90
2022-09-29T07:43:44.218Z,99.90
2022-09-29T07:46:11.921Z,99.90
2022-09-29T07:48:39.904Z,99.90
2022-09-29T07:51:11.014Z,99.90
2022-09-29T07:53:38.734Z,99.90
2022-09-29T07:56:14.519Z,99.90
2022-09-29T07:58:42.381Z,99.90
2022-09-29T08:01:12.907Z,99.90
2022-09-29T08:03:43.183Z,99.90
2022-09-29T08:06:11.391Z,99.90
2022-09-29T08:08:40.995Z,99.90
2022-09-29T08:11:19.776Z,99.90
2022-09-29T08:13:53.666Z,99.90
2022-09-29T08:16:21.511Z,99.90
2022-09-29T08:18:48.856Z,99.90
2022-09-29T08:21:16.297Z,99.90
2022-09-29T08:23:44.278Z,99.90
2022-09-29T08:26:17.520Z,99.90
2022-09-29T08:28:45.491Z,99.90
2022-09-29T08:31:21.458Z,99.90
2022-09-29T08:33:51.092Z,99.90
2022-09-29T08:36:20.338Z,99.90
2022-09-29T08:38:50.772Z,99.90
2022-09-29T08:41:42.857Z,99.90
2022-09-29T08:44:36.668Z,99.90
2022-09-29T08:47:41.960Z,99.90
2022-09-29T08:50:36.682Z,99.90
2022-09-29T08:53:20.958Z,99.90
2022-09-29T08:56:05.302Z,99.90
2022-09-29T08:58:35.207Z,99.90
2022-09-29T09:01:37.914Z,99.90
2022-09-29T09:04:44.089Z,99.90
2022-09-29T09:07:49.008Z,99.90
2022-09-29T09:10:42.078Z,99.90
2022-09-29T09:13:48.009Z,99.90
2022-09-29T09:16:27.191Z,99.90
2022-09-29T09:19:26.261Z,99.90
2022-09-29T09:22:07.077Z,99.90
2022-09-29T09:24:58.984Z,99.90
2022-09-29T09:27:32.924Z,99.90
2022-09-29T09:30:30.247Z,99.90
2022-09-29T09:33:03.102Z,99.90
2022-09-29T09:35:59.083Z,99.90
2022-09-29T09:38:39.831Z,99.90
2022-09-29T09:41:08.599Z,99.90
2022-09-29T09:43:42.304Z,99.90
2022-09-29T09:46:36.255Z,99.90
2022-09-29T09:49:24.913Z,99.90
2022-09-29T09:52:03.685Z,99.90
2022-09-29T09:54:38.557Z,99.90
2022-09-29T09:57:32.786Z,99.90
2022-09-29T10:00:20.174Z,99.70
2022-09-29T10:02:56.174Z,99.90
2022-09-29T10:05:29.203Z,99.90
2022-09-29T10:07:56.892Z,99.90
2022-09-29T10:10:28.421Z,99.90
2022-09-29T10:13:06.904Z,99.90
2022-09-29T10:15:54.994Z,99.50
2022-09-29T10:18:39.102Z,99.90
2022-09-29T10:21:38.526Z,99.20
2022-09-29T10:24:19.831Z,99.90
2022-09-29T10:26:49.250Z,99.90
2022-09-29T10:29:37.770Z,99.90
2022-09-29T10:32:38.103Z,99.70
2022-09-29T10:35:20.212Z,99.90
2022-09-29T10:37:48.470Z,99.80
2022-09-29T10:40:21.489Z,99.30
2022-09-29T10:42:51.178Z,99.90
2022-09-29T10:45:30.059Z,98.50
2022-09-29T10:47:57.370Z,97.50
2022-09-29T10:50:27.455Z,98.60
2022-09-29T10:53:01.134Z,97.70
2022-09-29T10:55:33.664Z,94.80
2022-09-29T10:58:45.305Z,94.10
2022-09-29T11:01:18.664Z,97.20
2022-09-29T11:04:03.344Z,98.50
2022-09-29T11:06:34.050Z,95.10
2022-09-29T11:09:07.018Z,97.70
2022-09-29T11:11:39.552Z,97.80
2022-09-29T11:14:50.218Z,95.70
2022-09-29T11:17:33.245Z,93.90
2022-09-29T11:20:04.236Z,95.80
2022-09-29T11:23:23.587Z,95.10
2022-09-29T11:26:24.484Z,96.40
2022-09-29T11:29:15.041Z,94.30
2022-09-29T11:32:11.418Z,91.40
2022-09-29T11:35:11.003Z,93.70
2022-09-29T11:38:12.800Z,93.40
2022-09-29T11:41:04.979Z,94.70
2022-09-29T11:44:16.351Z,94.80
2022-09-29T11:47:23.387Z,92.60
2022-09-29T11:50:21.477Z,95.40
2022-09-29T11:53:31.593Z,96.70
2022-09-29T11:56:31.835Z,95.80
2022-09-29T11:59:52.420Z,94.30
2022-09-29T12:02:34.659Z,95.90
2022-09-29T12:05:54.292Z,97.20
2022-09-29T12:08:57.578Z,96.40
2022-09-29T12:11:59.934Z,96.40
2022-09-29T12:15:17.591Z,95.30
2022-09-29T12:17:51.079Z,93.50
2022-09-29T12:20:32.267Z,94.40
2022-09-29T12:23:04.113Z,91.40
2022-09-29T12:25:35.479Z,93.80
2022-09-29T12:28:10.158Z,93.50
2022-09-29T12:30:47.077Z,93.20
2022-09-29T12:33:29.220Z,94.00
2022-09-29T12:36:33.783Z,95.00
2022-09-29T12:39:10.442Z,94.80
2022-09-29T12:41:44.817Z,93.90
2022-09-29T12:44:45.154Z,93.80
2022-09-29T12:47:40.055Z,92.90
2022-09-29T12:50:33.383Z,91.40
2022-09-29T12:53:11.577Z,93.80
2022-09-29T12:55:49.872Z,94.30
2022-09-29T12:58:38.708Z,95.70
2022-09-29T13:01:36.955Z,95.40
2022-09-29T13:04:38.933Z,96.70
2022-09-29T13:07:40.400Z,94.80
2022-09-29T13:11:00.120Z,94.90
2022-09-29T13:14:19.855Z,94.60
2022-09-29T13:46:39.156Z,96.30
2022-09-29T13:49:30.534Z,97.60
2022-09-29T13:52:25.178Z,95.70
2022-09-29T13:54:52.802Z,95.80
2022-09-29T13:57:27.580Z,95.20
2022-09-29T14:00:18.067Z,94.30
2022-09-29T14:02:52.144Z,96.40
2022-09-29T14:05:46.657Z,95.50
2022-09-29T14:08:27.720Z,95.00
2022-09-29T14:11:18.846Z,94.90
2022-09-29T14:14:01.486Z,94.20
2022-09-29T14:16:53.829Z,92.00
2022-09-29T14:19:39.811Z,92.40
2022-09-29T14:22:52.004Z,91.30
2022-09-29T14:25:30.439Z,90.30
2022-09-29T14:28:06.695Z,91.10
2022-09-29T14:30:51.060Z,91.20
2022-09-29T14:33:25.764Z,90.90
2022-09-29T14:36:16.016Z,90.50
2022-09-29T14:39:08.474Z,90.20
2022-09-29T14:41:44.323Z,90.70
2022-09-29T14:44:18.468Z,91.50
2022-09-29T14:47:45.049Z,91.30
2022-09-29T14:51:02.530Z,92.70
2022-09-29T14:53:49.862Z,93.20
2022-09-29T14:56:52.442Z,93.70
2022-09-29T14:59:59.744Z,93.30
2022-09-29T15:02:32.317Z,92.80
2022-09-29T15:04:59.868Z,92.90
2022-09-29T15:07:28.298Z,92.90
2022-09-29T15:09:59.806Z,91.80
2022-09-29T15:12:32.274Z,92.50
2022-09-29T15:15:01.953Z,92.00
2022-09-29T15:17:54.491Z,92.30
2022-09-29T15:20:55.987Z,90.40
2022-09-29T15:23:57.436Z,86.50
2022-09-29T15:26:28.422Z,84.00
2022-09-29T15:28:55.748Z,87.30
2022-09-29T15:31:30.692Z,88.20
2022-09-29T15:33:58.227Z,86.90
2022-09-29T15:36:33.714Z,84.90
2022-09-29T15:39:05.379Z,85.50
2022-09-29T15:41:34.750Z,87.10
2022-09-29T15:44:18.447Z,88.80
2022-09-29T15:46:57.589Z,88.70
2022-09-29T15:49:26.708Z,90.70
2022-09-29T15:52:05.556Z,89.30
2022-09-29T15:54:47.607Z,87.80
2022-09-29T15:57:44.114Z,90.40
2022-09-29T16:00:43.051Z,91.50
2022-09-29T16:03:24.118Z,92.50
2022-09-29T16:06:06.114Z,94.40
2022-09-29T16:08:39.865Z,99.90
2022-09-29T16:11:09.304Z,99.90
2022-09-29T16:13:40.830Z,99.90
2022-09-29T16:16:11.265Z,99.90
2022-09-29T16:18:54.875Z,99.90
2022-09-29T16:21:24.616Z,99.90
2022-09-29T16:24:00.899Z,99.90
2022-09-29T16:26:49.890Z,99.90
2022-09-29T16:29:28.993Z,99.90
2022-09-29T16:31:58.132Z,99.90
2022-09-29T16:34:31.298Z,99.90
2022-09-29T16:37:04.283Z,99.90
2022-09-29T16:39:43.255Z,99.90
2022-09-29T16:42:21.715Z,99.90
2022-09-29T16:44:53.318Z,99.90
2022-09-29T16:47:32.960Z,99.90
2022-09-29T16:50:05.043Z,99.90
2022-09-29T16:52:42.739Z,99.90
2022-09-29T16:55:28.274Z,99.90
2022-09-29T16:58:23.134Z,99.90
2022-09-29T17:00:50.468Z,99.90
2022-09-29T17:03:17.774Z,99.90
2022-09-29T17:05:49.161Z,99.90
2022-09-29T17:08:22.983Z,99.90
2022-09-29T17:10:51.813Z,99.90
2022-09-29T17:13:19.762Z,99.90
2022-09-29T17:15:51.514Z,99.90
2022-09-29T17:18:20.789Z,99.90
2022-09-29T17:20:48.127Z,99.90
2022-09-29T17:23:15.443Z,99.90
2022-09-29T17:25:45.921Z,99.90
2022-09-29T17:28:24.584Z,99.90
2022-09-29T17:30:55.543Z,99.90
2022-09-29T17:33:23.725Z,99.90
2022-09-29T17:35:55.089Z,99.90
2022-09-29T17:38:23.947Z,99.90
2022-09-29T17:41:04.578Z,99.90
2022-09-29T17:43:32.410Z,99.90
2022-09-29T17:46:01.262Z,99.90
2022-09-29T17:48:29.874Z,99.90
2022-09-29T17:50:59.216Z,99.90
2022-09-29T17:53:26.973Z,99.90
2022-09-29T17:55:57.067Z,99.90
2022-09-29T17:58:24.785Z,99.90
2022-09-29T18:00:57.593Z,99.90
2022-09-29T18:03:25.041Z,99.90
2022-09-29T18:06:00.131Z,99.90
2022-09-29T18:08:29.570Z,99.90
2022-09-29T18:10:59.284Z,99.90
2022-09-29T18:13:28.678Z,99.90
2022-09-29T18:15:56.626Z,99.90
2022-09-29T18:18:25.275Z,99.90
2022-09-29T18:20:53.136Z,99.90
2022-09-29T18:23:23.113Z,99.90
2022-09-29T18:25:52.288Z,99.90
2022-09-29T18:28:20.139Z,99.90
2022-09-29T18:30:55.383Z,99.90
2022-09-29T18:33:22.708Z,99.90
2022-09-29T18:35:54.687Z,99.90
2022-09-29T18:38:22.620Z,99.90
2022-09-29T18:40:54.224Z,99.90
2022-09-29T18:43:25.103Z,99.90
2022-09-29T18:45:53.979Z,99.90
2022-09-29T18:48:21.316Z,99.90
2022-09-29T18:50:51.141Z,99.90
2022-09-29T18:53:21.022Z,99.90
2022-09-29T18:55:49.738Z,99.90
2022-09-29T18:58:20.815Z,99.90
2022-09-29T19:00:50.691Z,99.90
2022-09-29T19:03:19.222Z,99.90
2022-09-29T19:05:47.395Z,99.90
2022-09-29T19:08:15.779Z,99.90
2022-09-29T19:11:01.106Z,99.90
2022-09-29T19:13:31.229Z,99.90
2022-09-29T19:15:59.570Z,99.90
2022-09-29T19:18:27.333Z,99.90
2022-09-29T19:20:56.988Z,99.90
2022-09-29T19:23:25.713Z,99.90
2022-09-29T19:25:54.334Z,99.90
2022-09-29T19:28:22.905Z,99.90
2022-09-29T19:30:50.368Z,99.90
2022-09-29T19:33:20.691Z,99.90
2022-09-29T19:35:51.386Z,99.90
2022-09-29T19:38:19.360Z,99.90
2022-09-29T19:40:48.100Z,99.90
2022-09-29T19:43:15.729Z,99.90
2022-09-29T19:45:44.813Z,99.90
2022-09-29T19:48:17.883Z,99.90
2022-09-29T19:51:04.246Z,99.90
2022-09-29T19:53:31.699Z,99.90
2022-09-29T19:55:59.765Z,99.90
2022-09-29T19:58:27.846Z,99.90
2022-09-29T20:00:59.976Z,99.90
2022-09-29T20:03:27.245Z,99.90
2022-09-29T20:06:03.304Z,99.90
2022-09-29T20:08:30.893Z,99.90
2022-09-29T20:11:09.533Z,99.90
2022-09-29T20:13:37.227Z,99.90
2022-09-29T20:16:06.018Z,99.90
2022-09-29T20:18:37.218Z,99.90
2022-09-29T20:21:12.789Z,99.90
2022-09-29T20:23:40.195Z,99.90
2022-09-29T20:26:10.884Z,99.90
2022-09-29T20:28:38.834Z,99.90
2022-09-29T20:31:07.846Z,99.90
2022-09-29T20:33:36.474Z,99.90
2022-09-29T20:36:05.041Z,99.90
2022-09-29T20:38:34.497Z,99.90
2022-09-29T20:41:02.816Z,99.90
2022-09-29T20:43:30.552Z,99.90
2022-09-29T20:46:04.094Z,99.90
2022-09-29T20:48:35.432Z,99.90
2022-09-29T20:51:04.788Z,99.90
2022-09-29T20:53:36.726Z,99.90
2022-09-29T20:56:18.375Z,99.90
2022-09-29T20:58:50.837Z,99.90
2022-09-29T21:01:21.515Z,99.90
2022-09-29T21:04:01.059Z,99.90
2022-09-29T21:06:30.680Z,99.90
2022-09-29T21:08:58.990Z,99.90
2022-09-29T21:11:26.963Z,99.90
2022-09-29T21:13:56.942Z,99.90
2022-09-29T21:16:25.712Z,99.90
2022-09-29T21:18:54.294Z,99.90
2022-09-29T21:21:21.721Z,99.90
2022-09-29T21:23:50.589Z,99.90
2022-09-29T21:26:24.536Z,99.90
2022-09-29T21:28:54.232Z,99.90
2022-09-29T21:31:24.285Z,99.90
2022-09-29T21:33:57.170Z,99.90
2022-09-29T21:36:27.039Z,99.90
2022-09-29T21:38:54.793Z,99.90
2022-09-29T21:41:26.464Z,99.90
2022-09-29T21:43:56.319Z,99.90
2022-09-29T21:46:29.395Z,99.90
2022-09-29T21:49:01.963Z,99.90
2022-09-29T21:51:34.967Z,99.90
2022-09-29T21:54:03.406Z,99.90
2022-09-29T21:56:36.246Z,99.90
2022-09-29T21:59:03.552Z,99.90
2022-09-29T22:01:31.785Z,99.90
2022-09-29T22:03:59.188Z,99.90
2022-09-29T22:06:29.755Z,99.90
2022-09-29T22:08:58.014Z,99.90
2022-09-29T22:11:32.493Z,99.90
2022-09-29T22:14:01.030Z,99.90
2022-09-29T22:16:34.546Z,99.90
2022-09-29T22:19:23.406Z,99.90
2022-09-29T22:21:54.501Z,99.90
2022-09-29T22:24:24.087Z,99.90
2022-09-29T22:26:51.759Z,99.90
2022-09-29T22:29:19.965Z,99.90
2022-09-29T22:31:47.540Z,99.90
2022-09-29T22:34:14.971Z,99.90
2022-09-29T22:36:42.284Z,99.90
2022-09-29T22:39:10.437Z,99.90
2022-09-29T22:41:39.794Z,99.90
2022-09-29T22:44:08.127Z,99.90
2022-09-29T22:46:36.105Z,99.90
2022-09-29T22:49:03.832Z,99.90
2022-09-29T22:51:31.111Z,99.90
2022-09-29T22:53:59.091Z,99.90
2022-09-29T22:56:29.156Z,99.90
2022-09-29T22:59:02.030Z,99.90
2022-09-29T23:01:29.746Z,99.90
2022-09-29T23:03:57.270Z,99.90
2022-09-29T23:06:25.088Z,99.90
2022-09-29T23:08:54.573Z,99.90
2022-09-29T23:11:21.935Z,99.90
2022-09-29T23:13:49.316Z,99.90
2022-09-29T23:16:17.597Z,99.90
2022-09-29T23:18:46.145Z,99.90
2022-09-29T23:21:17.399Z,99.90
2022-09-29T23:23:45.890Z,99.90
2022-09-29T23:26:13.401Z,99.90
2022-09-29T23:28:40.742Z,99.90
2022-09-29T23:31:08.591Z,99.90
2022-09-29T23:33:35.987Z,99.90
2022-09-29T23:36:15.176Z,99.90
2022-09-29T23:39:02.910Z,99.90
2022-09-29T23:41:31.129Z,99.90
2022-09-29T23:44:01.853Z,99.90
2022-09-29T23:46:32.330Z,99.90
2022-09-29T23:49:07.582Z,99.90
2022-09-29T23:51:50.160Z,99.90
2022-09-29T23:54:20.194Z,99.90
2022-09-29T23:56:49.063Z,99.90
2022-09-29T23:59:16.876Z,99.90
